Thunder radar more information blitzortung!


Radar de pluja more information rain snow radar


Visita la nostra xarxa de llocs de meteo:

Template documentation
and downloads

And another site



No particular awareness of the weather is required.    There are no Weather-warnings

Pagina Historial Weather Underground text

Diari Resum Novembre 20, 2017 Unitats:  Imperial    Mètric   Tant
« Previous Dia
SegĂźent Dia »
Diari Setmana Mensual Anual Personalitzada
  Maxima: Minima: Media:
Temperatura: TemperatureC °F 4.1 °F 11.3 °F
Punt de rosada: DewpointC °F -1.1 °F 2.4 °F
Humitat: Humidity % 45 % 55 %
Wind Speed: WindSpeedKMH mph 0.0 mph 2.4 mph
RĂ fegues de vent: WindSpeedGustKMH mph - -
Vent:- - South
Pression baro: PressurehPa in 1020.9 in -
Precipitacions: 0.0 in    
Historical Graphs
 
 
Dades de taula per Novembre 20, 2017
Temps Temperatura Punt de rosada Pression baro Vent Wind Speed RĂ fegues de vent Humitat Rainfall Rate (Hourly)
TemperatureC °F DewpointC °F PressurehPa in Calm     Humidity % HourlyPrecipMM in
00:04 7.4 °F 0.6 °F 1023.9 in Calm     62 % 0.0 in
00:10 4.4 °F -0.8 °F 1023.9 in Calm   3.2 mph 69 % 0.0 in
00:20 4.3 °F -0.9 °F 1023.9 in Calm   3.2 mph 69 % 0.0 in
00:30 4.3 °F -0.9 °F 1022.9 in Calm   1.6 mph 69 % 0.0 in
00:40 4.1 °F -1.1 °F 1022.9 in Calm   3.2 mph 69 % 0.0 in
00:50 4.2 °F -1.0 °F 1022.9 in WNW 1.6 mph 3.2 mph 69 % 0.0 in
01:00 4.2 °F -1.0 °F 1023.9 in Calm   3.2 mph 69 % 0.0 in
01:30 4.2 °F -0.8 °F 1023.9 in NW 1.6 mph 3.2 mph 70 % 0.0 in
01:40 4.3 °F -0.7 °F 1022.9 in Calm   3.2 mph 70 % 0.0 in
01:50 4.3 °F -0.5 °F 1022.9 in Calm   1.6 mph 71 % 0.0 in
02:00 4.3 °F -0.5 °F 1022.9 in Calm   3.2 mph 71 % 0.0 in
02:10 4.3 °F -0.7 °F 1022.9 in NNE 1.6 mph 3.2 mph 70 % 0.0 in
02:20 4.5 °F -0.5 °F 1022.9 in WNW 1.6 mph 1.6 mph 70 % 0.0 in
02:30 4.7 °F -0.1 °F 1023.9 in Calm   3.2 mph 71 % 0.0 in
02:40 5.0 °F 0.0 °F 1022.9 in WSW 1.6 mph 3.2 mph 70 % 0.0 in
02:50 5.4 °F 0.4 °F 1022.9 in WSW 3.2 mph 3.2 mph 70 % 0.0 in
03:00 5.7 °F 0.7 °F 1023.9 in SW 1.6 mph 3.2 mph 70 % 0.0 in
03:10 6.2 °F 0.9 °F 1023.9 in SW 1.6 mph 1.6 mph 69 % 0.0 in
03:30 7.6 °F 1.8 °F 1023.9 in SSE 1.6 mph 1.6 mph 67 % 0.0 in
03:40 7.6 °F 1.7 °F 1023.9 in East 3.2 mph 3.2 mph 66 % 0.0 in
03:50 8.1 °F 1.9 °F 1023.9 in NE 1.6 mph 3.2 mph 65 % 0.0 in
04:00 8.8 °F 2.3 °F 1023.9 in NE 1.6 mph 6.4 mph 64 % 0.0 in
04:10 8.6 °F 1.9 °F 1023.9 in NE 3.2 mph 4.8 mph 63 % 0.0 in
04:20 9.5 °F 2.8 °F 1023.9 in Calm   3.2 mph 63 % 0.0 in
04:30 10.0 °F 3.1 °F 1023.9 in ENE 1.6 mph 3.2 mph 62 % 0.0 in
04:40 10.7 °F 3.7 °F 1024.9 in ENE 1.6 mph 3.2 mph 62 % 0.0 in
10:41 11.4 °F 3.9 °F 1024.9 in ESE 3.7 mph 3.7 mph 60 % 0.0 in
10:46 11.4 °F 3.9 °F 1024.9 in East 4.2 mph 4.2 mph 60 % 0.0 in
11:01 11.6 °F 3.8 °F 1024.9 in ENE 3.7 mph 3.7 mph 59 % 0.0 in
11:06 11.6 °F 3.6 °F 1024.9 in NNE 3.7 mph 3.7 mph 58 % 0.0 in
11:16 11.9 °F 3.9 °F 1024.9 in NE 3.7 mph 3.7 mph 58 % 0.0 in
11:21 12.2 °F 4.2 °F 1024.9 in NNE 1.9 mph 1.9 mph 58 % 0.0 in
11:36 12.7 °F 4.4 °F 1024.9 in ENE 3.9 mph 3.9 mph 57 % 0.0 in
11:46 12.9 °F 4.6 °F 1024.9 in NE 3.7 mph 3.7 mph 57 % 0.0 in
11:51 12.9 °F 4.6 °F 1024.9 in ENE 3.7 mph 3.7 mph 57 % 0.0 in
12:11 13.6 °F 5.0 °F 1024.9 in NW 4.2 mph 4.2 mph 56 % 0.0 in
12:16 13.7 °F 5.1 °F 1024.9 in NNW 3.7 mph 3.7 mph 56 % 0.0 in
12:21 14.0 °F 5.3 °F 1023.9 in NNE 2.3 mph   56 % 0.0 in
12:26 14.2 °F 5.3 °F 1023.9 in NNW 1.9 mph   55 % 0.0 in
12:31 14.1 °F 5.2 °F 1023.9 in ENE 4.2 mph 4.2 mph 55 % 0.0 in
12:36 14.1 °F 4.9 °F 1022.9 in NE 3.7 mph   54 % 0.0 in
12:41 14.2 °F 5.0 °F 1022.9 in NNE 4.2 mph 4.2 mph 54 % 0.0 in
12:56 14.4 °F 4.9 °F 1022.9 in East 5.6 mph 5.6 mph 53 % 0.0 in
13:21 15.0 °F 5.5 °F 1022.9 in NE 3.9 mph   53 % 0.0 in
13:36 15.0 °F 5.2 °F 1022.9 in ENE 5.6 mph 5.6 mph 52 % 0.0 in
13:41 15.2 °F 5.4 °F 1022.9 in NNE 3.9 mph 3.9 mph 52 % 0.0 in
13:51 15.3 °F 5.2 °F 1022.9 in ESE 7.4 mph 7.4 mph 51 % 0.0 in
13:56 15.4 °F 5.3 °F 1022.9 in ENE 3.7 mph 3.7 mph 51 % 0.0 in
14:01 15.4 °F 5.3 °F 1022.9 in NNE 5.3 mph 5.3 mph 51 % 0.0 in
14:06 15.3 °F 5.2 °F 1022.9 in NNW 3.7 mph 3.7 mph 51 % 0.0 in
14:11 15.5 °F 5.1 °F 1022.9 in NE 3.7 mph 3.7 mph 50 % 0.0 in
14:16 15.5 °F 5.1 °F 1022.9 in East 3.7 mph 3.7 mph 50 % 0.0 in
14:21 15.6 °F 4.9 °F 1022.9 in ESE 9.3 mph 9.3 mph 49 % 0.0 in
14:36 16.1 °F 5.4 °F 1022.9 in ESE 3.7 mph 3.7 mph 49 % 0.0 in
14:42 16.0 °F 5.3 °F 1022.9 in East 3.7 mph 3.7 mph 49 % 0.0 in
14:52 15.9 °F 4.9 °F 1021.9 in ESE 5.6 mph 5.6 mph 48 % 0.0 in
14:57 16.0 °F 5.0 °F 1021.9 in ESE 5.6 mph 5.6 mph 48 % 0.0 in
15:02 16.1 °F 5.1 °F 1022.9 in SSE 1.9 mph   48 % 0.0 in
15:07 16.1 °F 5.1 °F 1022.9 in NE 2.6 mph 2.6 mph 48 % 0.0 in
15:12 16.1 °F 4.8 °F 1022.9 in East 5.6 mph 5.6 mph 47 % 0.0 in
15:17 16.1 °F 4.8 °F 1022.9 in SE 5.6 mph 5.6 mph 47 % 0.0 in
15:22 16.2 °F 4.9 °F 1022.9 in ENE 3.7 mph 3.7 mph 47 % 0.0 in
15:32 16.5 °F 5.2 °F 1022.9 in SSE 1.9 mph   47 % 0.0 in
15:37 16.5 °F 5.4 °F 1022.9 in Calm     48 % 0.0 in
15:47 16.4 °F 5.1 °F 1022.9 in East 1.9 mph   47 % 0.0 in
15:52 16.6 °F 5.2 °F 1022.9 in East 2.6 mph 2.6 mph 47 % 0.0 in
15:57 16.6 °F 5.2 °F 1022.9 in Calm     47 % 0.0 in
16:02 16.6 °F 5.2 °F 1022.9 in NW 2.6 mph 2.6 mph 47 % 0.0 in
16:12 16.9 °F 5.5 °F 1022.9 in WSW 3.7 mph 3.7 mph 47 % 0.0 in
16:27 17.3 °F 5.6 °F 1022.9 in SW 3.9 mph 3.9 mph 46 % 0.0 in
16:42 17.3 °F 5.2 °F 1021.9 in SW 1.9 mph   45 % 0.0 in
16:47 17.0 °F 4.9 °F 1021.9 in Calm     45 % 0.0 in
16:52 17.0 °F 4.9 °F 1021.9 in SW 1.9 mph 1.9 mph 45 % 0.0 in
16:57 17.0 °F 4.9 °F 1021.9 in SW 1.9 mph 1.9 mph 45 % 0.0 in
17:02 16.8 °F 5.4 °F 1022.9 in Calm     47 % 0.0 in
17:07 16.5 °F 5.4 °F 1022.9 in WSW 3.7 mph 3.7 mph 48 % 0.0 in
17:17 15.4 °F 4.4 °F 1022.9 in Calm     48 % 0.0 in
17:27 14.9 °F 4.0 °F 1022.9 in Calm     48 % 0.0 in
17:32 14.6 °F 3.7 °F 1022.9 in WSW 3.7 mph 3.7 mph 48 % 0.0 in
17:37 14.3 °F 3.4 °F 1022.9 in WSW 3.7 mph 3.7 mph 48 % 0.0 in
17:47 13.9 °F 3.1 °F 1022.9 in West 3.7 mph 3.7 mph 48 % 0.0 in
17:52 13.7 °F 2.9 °F 1022.9 in WSW 4.7 mph 4.7 mph 48 % 0.0 in
17:57 13.5 °F 2.7 °F 1022.9 in SW 5.6 mph 5.6 mph 48 % 0.0 in
18:07 13.3 °F 2.8 °F 1021.9 in SW 3.9 mph 3.9 mph 49 % 0.0 in
18:12 13.2 °F 2.7 °F 1021.9 in WSW 3.7 mph 3.7 mph 49 % 0.0 in
18:17 13.1 °F 2.6 °F 1021.9 in West 3.7 mph 3.7 mph 49 % 0.0 in
18:22 13.0 °F 2.5 °F 1021.9 in West 5.6 mph 5.6 mph 49 % 0.0 in
18:27 12.8 °F 2.3 °F 1021.9 in West 5.6 mph 5.6 mph 49 % 0.0 in
18:32 12.8 °F 2.3 °F 1021.9 in WSW 5.6 mph 5.6 mph 49 % 0.0 in
18:37 12.7 °F 2.2 °F 1021.9 in West 5.0 mph 5.0 mph 49 % 0.0 in
18:42 12.7 °F 2.2 °F 1021.9 in WSW 3.9 mph 3.9 mph 49 % 0.0 in
18:47 12.6 °F 2.2 °F 1021.9 in West 5.6 mph 5.6 mph 49 % 0.0 in
18:57 12.4 °F 1.9 °F 1021.9 in WSW 5.3 mph 5.3 mph 49 % 0.0 in
19:02 12.3 °F 2.2 °F 1021.9 in SW 3.7 mph 3.7 mph 50 % 0.0 in
19:13 12.1 °F 2.0 °F 1021.9 in WSW 3.9 mph 3.9 mph 50 % 0.0 in
19:33 11.7 °F 1.6 °F 1022.9 in SW 3.7 mph 3.7 mph 50 % 0.0 in
19:38 11.6 °F 1.5 °F 1022.9 in SW 2.3 mph 2.3 mph 50 % 0.0 in
19:43 11.5 °F 1.7 °F 1022.9 in Calm     51 % 0.0 in
19:45 11.5 °F 1.7 °F 1022.9 in Calm     51 % 0.0 in
20:00 11.2 °F 1.4 °F 1022.9 in Calm     51 % 0.0 in
20:10 11.4 °F 1.6 °F 1022.9 in WSW 3.7 mph 3.7 mph 51 % 0.0 in
20:20 11.2 °F 1.4 °F 1022.9 in Calm     51 % 0.0 in
20:25 11.1 °F 1.6 °F 1022.9 in Calm     52 % 0.0 in
20:40 10.5 °F 1.1 °F 1022.9 in Calm     52 % 0.0 in
20:45 10.4 °F 0.9 °F 1022.9 in Calm     52 % 0.0 in
20:50 10.2 °F 0.8 °F 1022.9 in Calm     52 % 0.0 in
20:55 10.2 °F 1.1 °F 1022.9 in Calm     53 % 0.0 in
21:00 10.1 °F 0.9 °F 1022.9 in WNW 2.3 mph 2.3 mph 53 % 0.0 in
21:05 10.2 °F 1.1 °F 1022.9 in SW 3.7 mph 3.7 mph 53 % 0.0 in
21:16 10.0 °F 0.8 °F 1022.9 in WSW 1.9 mph   53 % 0.0 in
21:31 9.8 °F 0.7 °F 1023.9 in WSW 1.9 mph   53 % 0.0 in
21:36 9.7 °F 0.6 °F 1022.9 in Calm     53 % 0.0 in
21:41 9.6 °F 0.5 °F 1022.9 in Calm     53 % 0.0 in
21:46 9.4 °F 0.3 °F 1022.9 in WSW 3.7 mph 3.7 mph 53 % 0.0 in
21:51 9.3 °F 0.4 °F 1023.9 in West 3.7 mph   54 % 0.0 in
21:56 9.2 °F 0.4 °F 1023.9 in Calm     54 % 0.0 in
22:01 9.0 °F 0.2 °F 1023.9 in Calm     54 % 0.0 in
22:11 8.9 °F 0.1 °F 1022.9 in Calm     54 % 0.0 in
22:31 8.8 °F 0.2 °F 1022.9 in Calm     55 % 0.0 in
22:36 8.7 °F 0.2 °F 1022.9 in Calm     55 % 0.0 in
22:41 8.6 °F 0.1 °F 1022.9 in Calm     55 % 0.0 in
22:46 8.5 °F -0.1 °F 1022.9 in Calm     55 % 0.0 in
22:51 8.5 °F -0.1 °F 1023.9 in Calm     55 % 0.0 in
23:01 8.6 °F 0.3 °F 1023.9 in Calm     56 % 0.0 in
23:06 8.5 °F 0.2 °F 1022.9 in Calm     56 % 0.0 in
23:11 8.4 °F 0.1 °F 1022.9 in Calm     56 % 0.0 in
23:16 8.3 °F 0.3 °F 1022.9 in NNE 2.6 mph 2.6 mph 57 % 0.0 in
23:21 8.1 °F 0.1 °F 1022.9 in NNE 1.9 mph   57 % 0.0 in
23:26 7.9 °F -0.1 °F 1022.9 in WSW 3.7 mph 3.7 mph 57 % 0.0 in
23:36 7.5 °F -0.2 °F 1023.9 in WSW 2.6 mph   58 % 0.0 in
23:40 6.1 °F -1.1 °F 1020.9 in NNW 1.6 mph 3.2 mph 60 % 0.0 in
23:41 7.4 °F -0.3 °F 1023.9 in Calm     58 % 0.0 in
23:50 6.1 °F -1.1 °F 1020.9 in NNW 1.6 mph 3.2 mph 60 % 0.0 in
23:52 7.2 °F -0.3 °F 1023.9 in Calm     59 % 0.0 in
23:57 7.1 °F -0.4 °F 1023.9 in Calm     59 % 0.0 in
23:58 7.1 °F -0.6 °F 1023.9 in Calm     58 % 0.0 in
Meteo Sesrovires
Elogis d' Weather Underground - 1.25 mb

Guio original per  Jim McMurry - jmcmurry@mwt.net Adaptat per a la plantilla per  Wim van der Kuil - Leuven-Template.eu

Trobareu la nostra informacio del temps tambe a:

Weather Underground

AWEKAS